createdAt,value
2024-01-24T00:01:00.353Z,101288.00
2024-01-24T00:03:28.813Z,101287.19
2024-01-24T00:05:56.433Z,101262.03
2024-01-24T00:08:24.028Z,101271.34
2024-01-24T00:10:51.827Z,101259.09
2024-01-24T00:13:19.335Z,101263.19
2024-01-24T00:15:47.256Z,101268.06
2024-01-24T00:18:15.046Z,101274.09
2024-01-24T00:20:42.681Z,101270.34
2024-01-24T00:23:10.148Z,101284.69
2024-01-24T00:25:37.708Z,101262.50
2024-01-24T00:28:06.952Z,101266.25
2024-01-24T00:30:34.660Z,101245.38
2024-01-24T00:33:03.508Z,101238.38
2024-01-24T00:35:31.015Z,101219.91
2024-01-24T00:37:58.490Z,101219.91
2024-01-24T00:40:26.023Z,101221.22
2024-01-24T00:42:53.739Z,101218.91
2024-01-24T00:45:22.670Z,101227.72
2024-01-24T00:47:50.379Z,101232.94
2024-01-24T00:50:18.025Z,101229.50
2024-01-24T00:52:45.500Z,101241.09
2024-01-24T00:55:13.194Z,101251.03
2024-01-24T00:57:40.682Z,101211.03
2024-01-24T01:00:09.924Z,101238.78
2024-01-24T01:02:38.142Z,101229.31
2024-01-24T01:05:06.668Z,101206.31
2024-01-24T01:07:34.230Z,101203.88
2024-01-24T01:10:01.803Z,101214.16
2024-01-24T01:12:29.324Z,101215.16
2024-01-24T01:14:56.878Z,101215.50
2024-01-24T01:17:24.412Z,101212.25
2024-01-24T01:19:51.845Z,101208.00
2024-01-24T01:22:21.575Z,101220.56
2024-01-24T01:24:49.339Z,101189.44
2024-01-24T01:27:16.993Z,101215.84
2024-01-24T01:29:44.601Z,101221.25
2024-01-24T01:32:12.108Z,101223.53
2024-01-24T01:34:39.961Z,101216.03
2024-01-24T01:37:08.165Z,101204.13
2024-01-24T01:39:35.814Z,101230.22
2024-01-24T01:42:04.188Z,101223.53
2024-01-24T01:44:37.514Z,101228.78
2024-01-24T01:47:05.484Z,101229.41
2024-01-24T01:49:33.113Z,101222.25
2024-01-24T01:52:00.676Z,101247.53
2024-01-24T01:54:29.169Z,101237.56
2024-01-24T01:56:56.817Z,101230.09
2024-01-24T01:59:26.449Z,101237.44
2024-01-24T02:01:57.810Z,101230.91
2024-01-24T02:04:27.752Z,101232.88
2024-01-24T02:06:56.962Z,101216.91
2024-01-24T02:09:25.726Z,101213.47
2024-01-24T02:11:53.298Z,101212.81
2024-01-24T02:14:20.872Z,101204.16
2024-01-24T02:16:48.429Z,101209.38
2024-01-24T02:19:16.122Z,101207.94
2024-01-24T02:21:43.794Z,101204.69
2024-01-24T02:24:12.561Z,101208.56
2024-01-24T02:26:40.503Z,101213.16
2024-01-24T02:29:08.148Z,101220.00
2024-01-24T02:31:35.823Z,101219.16
2024-01-24T02:34:04.165Z,101207.94
2024-01-24T02:36:31.873Z,101198.81
2024-01-24T02:38:59.470Z,101200.91
2024-01-24T02:41:27.071Z,101199.97
2024-01-24T02:43:54.577Z,101216.88
2024-01-24T02:46:22.032Z,101219.66
2024-01-24T02:48:49.749Z,101213.97
2024-01-24T02:51:29.338Z,101207.28
2024-01-24T02:53:57.374Z,101226.16
2024-01-24T02:56:24.931Z,101215.88
2024-01-24T02:58:52.523Z,101225.84
2024-01-24T03:01:20.180Z,101217.03
2024-01-24T03:03:48.303Z,101183.81
2024-01-24T03:06:16.937Z,101199.59
2024-01-24T03:08:49.040Z,101205.16
2024-01-24T03:11:17.868Z,101195.22
2024-01-24T03:13:45.402Z,101216.22
2024-01-24T03:16:13.112Z,101230.88
2024-01-24T03:18:41.175Z,101221.13
2024-01-24T03:21:17.121Z,101227.13
2024-01-24T03:23:45.865Z,101227.13
2024-01-24T03:26:17.643Z,101234.16
2024-01-24T03:28:45.330Z,101250.25
2024-01-24T03:31:13.354Z,101247.19
2024-01-24T03:33:40.990Z,101266.88
2024-01-24T03:36:08.959Z,101274.03
2024-01-24T03:38:36.512Z,101280.06
2024-01-24T03:41:04.125Z,101292.31
2024-01-24T03:43:31.665Z,101292.59
2024-01-24T03:46:01.164Z,101290.50
2024-01-24T03:48:28.846Z,101280.88
2024-01-24T03:50:56.389Z,101285.28
2024-01-24T03:53:23.939Z,101286.91
2024-01-24T03:55:52.382Z,101289.69
2024-01-24T03:58:20.091Z,101295.50
2024-01-24T04:00:47.748Z,101309.53
2024-01-24T04:03:15.336Z,101312.16
2024-01-24T04:05:42.829Z,101314.59
2024-01-24T04:08:10.358Z,101306.00
2024-01-24T04:10:37.924Z,101291.34
2024-01-24T04:13:05.357Z,101260.03
2024-01-24T04:15:33.118Z,101267.22
2024-01-24T04:18:01.127Z,101269.19
2024-01-24T04:20:29.953Z,101283.03
2024-01-24T04:22:57.514Z,101292.16
2024-01-24T04:25:25.042Z,101306.28
2024-01-24T04:27:52.664Z,101295.88
2024-01-24T04:30:20.489Z,101328.78
2024-01-24T04:32:48.187Z,101352.56
2024-01-24T04:35:15.954Z,101350.59
2024-01-24T04:37:43.633Z,101320.94
2024-01-24T04:40:13.009Z,101312.66
2024-01-24T04:42:40.818Z,101334.31
2024-01-24T04:45:11.613Z,101331.06
2024-01-24T04:47:43.838Z,101330.56
2024-01-24T04:50:12.674Z,101342.44
2024-01-24T04:52:40.863Z,101332.19
2024-01-24T04:55:13.297Z,101321.94
2024-01-24T04:57:42.816Z,101335.78
2024-01-24T05:00:13.432Z,101330.56
2024-01-24T05:02:41.713Z,101327.31
2024-01-24T05:05:09.659Z,101325.66
2024-01-24T05:07:37.877Z,101340.66
2024-01-24T05:10:06.137Z,101352.03
2024-01-24T05:12:33.817Z,101352.34
2024-01-24T05:15:01.475Z,101359.03
2024-01-24T05:17:29.075Z,101385.09
2024-01-24T05:19:56.577Z,101371.56
2024-01-24T05:22:24.161Z,101403.97
2024-01-24T05:24:52.212Z,101401.53
2024-01-24T05:27:19.914Z,101374.16
2024-01-24T05:29:48.566Z,101414.88
2024-01-24T05:32:16.058Z,101396.94
2024-01-24T05:34:43.613Z,101386.34
2024-01-24T05:37:11.255Z,101389.97
2024-01-24T05:39:38.767Z,101387.69
2024-01-24T05:42:06.606Z,101384.91
2024-01-24T05:44:34.241Z,101388.16
2024-01-24T05:47:02.009Z,101401.53
2024-01-24T05:49:29.620Z,101396.31
2024-01-24T05:51:57.342Z,101412.72
2024-01-24T05:54:24.864Z,101412.25
2024-01-24T05:56:52.502Z,101411.25
2024-01-24T05:59:20.004Z,101408.94
2024-01-24T06:01:48.818Z,101436.97
2024-01-24T06:04:16.618Z,101433.38
2024-01-24T06:06:44.293Z,101454.19
2024-01-24T06:09:11.883Z,101459.22
2024-01-24T06:11:39.660Z,101467.53
2024-01-24T06:14:07.177Z,101471.44
2024-01-24T06:16:34.803Z,101470.31
2024-01-24T06:19:02.474Z,101470.91
2024-01-24T06:21:30.169Z,101486.09
2024-01-24T06:23:57.737Z,101489.47
2024-01-24T06:26:25.287Z,101491.44
2024-01-24T06:28:53.048Z,101508.69
2024-01-24T06:31:20.653Z,101497.28
2024-01-24T06:33:48.350Z,101519.75
2024-01-24T06:36:18.806Z,101505.41
2024-01-24T06:38:46.470Z,101530.31
2024-01-24T06:41:14.355Z,101559.13
2024-01-24T06:43:43.591Z,101545.91
2024-01-24T06:46:12.557Z,101551.75
2024-01-24T06:48:40.427Z,101561.81
2024-01-24T06:51:13.210Z,101567.16
2024-01-24T06:53:40.810Z,101570.53
2024-01-24T06:56:09.762Z,101596.88
2024-01-24T06:58:41.880Z,101607.75
2024-01-24T07:01:09.469Z,101635.50
2024-01-24T07:03:37.536Z,101635.63
2024-01-24T07:06:06.873Z,101615.75
2024-01-24T07:08:35.076Z,101628.28
2024-01-24T07:11:03.492Z,101618.63
2024-01-24T07:13:31.036Z,101636.16
2024-01-24T07:15:58.676Z,101618.81
2024-01-24T07:18:26.504Z,101640.53
2024-01-24T07:20:54.253Z,101624.56
2024-01-24T07:23:21.832Z,101626.81
2024-01-24T07:25:49.368Z,101651.78
2024-01-24T07:28:16.913Z,101650.75
2024-01-24T07:30:44.701Z,101652.00
2024-01-24T07:33:12.247Z,101646.25
2024-01-24T07:35:41.302Z,101639.72
2024-01-24T07:38:08.906Z,101658.34
2024-01-24T07:40:38.229Z,101670.28
2024-01-24T07:43:06.141Z,101685.25
2024-01-24T07:45:33.760Z,101684.72
2024-01-24T07:48:01.690Z,101702.09
2024-01-24T07:50:29.349Z,101675.59
2024-01-24T07:52:56.987Z,101668.75
2024-01-24T07:55:32.622Z,101678.75
2024-01-24T07:58:09.309Z,101696.75
2024-01-24T08:00:37.181Z,101706.16
2024-01-24T08:03:05.139Z,101704.03
2024-01-24T08:05:33.491Z,101727.25
2024-01-24T08:08:02.718Z,101721.72
2024-01-24T08:10:30.243Z,101726.41
2024-01-24T08:12:58.265Z,101703.47
2024-01-24T08:15:26.556Z,101717.91
2024-01-24T08:17:54.235Z,101737.84
2024-01-24T08:20:23.187Z,101740.91
2024-01-24T08:22:50.866Z,101737.34
2024-01-24T08:25:18.393Z,101732.41
2024-01-24T08:27:46.410Z,101734.88
2024-01-24T08:30:14.210Z,101749.78
2024-01-24T08:32:43.373Z,101730.25
2024-01-24T08:35:11.271Z,101757.56
2024-01-24T08:37:38.868Z,101761.44
2024-01-24T08:40:09.765Z,101765.63
2024-01-24T08:42:38.425Z,101788.84
2024-01-24T08:45:06.568Z,101782.19
2024-01-24T08:47:34.076Z,101792.13
2024-01-24T08:50:02.038Z,101777.47
2024-01-24T08:52:29.564Z,101787.13
2024-01-24T08:54:57.727Z,101800.44
2024-01-24T08:57:26.088Z,101796.22
2024-01-24T08:59:54.970Z,101794.28
2024-01-24T09:02:30.843Z,101800.63
2024-01-24T09:04:59.162Z,101808.91
2024-01-24T09:07:26.982Z,101794.78
2024-01-24T09:09:54.668Z,101818.00
2024-01-24T09:12:23.071Z,101838.47
2024-01-24T09:14:50.786Z,101851.97
2024-01-24T09:17:18.975Z,101858.31
2024-01-24T09:19:48.976Z,101832.88
2024-01-24T09:22:17.545Z,101832.88
2024-01-24T09:24:45.400Z,101852.72
2024-01-24T09:27:13.002Z,101838.03
2024-01-24T09:29:40.591Z,101844.38
2024-01-24T09:32:08.170Z,101862.06
2024-01-24T09:34:35.839Z,101849.88
2024-01-24T09:37:04.192Z,101868.66
2024-01-24T09:39:31.721Z,101890.13
2024-01-24T09:42:02.849Z,101894.84
2024-01-24T09:44:34.205Z,101898.97
2024-01-24T09:47:03.586Z,101923.28
2024-01-24T09:49:33.127Z,101930.47
2024-01-24T09:52:03.904Z,101933.25
2024-01-24T09:54:33.975Z,101926.59
2024-01-24T09:57:03.354Z,101916.59
2024-01-24T09:59:30.905Z,101916.59
2024-01-24T10:01:59.512Z,101929.59
2024-01-24T10:04:27.699Z,101941.16
2024-01-24T10:06:55.715Z,101938.91
2024-01-24T10:09:23.357Z,101935.03
2024-01-24T10:11:50.841Z,101952.97
2024-01-24T10:14:19.657Z,101948.78
2024-01-24T10:16:47.355Z,101955.06
2024-01-24T10:19:15.388Z,101954.78
2024-01-24T10:21:43.431Z,101957.22
2024-01-24T10:24:12.550Z,101957.75
2024-01-24T10:26:40.255Z,101967.69
2024-01-24T10:29:08.966Z,101955.53
2024-01-24T10:31:36.762Z,101979.59
2024-01-24T10:34:05.395Z,101967.91
2024-01-24T10:36:43.291Z,101977.56
2024-01-24T10:39:15.711Z,101965.91
2024-01-24T10:41:46.255Z,101977.19
2024-01-24T10:44:18.284Z,101986.81
2024-01-24T10:46:46.537Z,101995.09
2024-01-24T10:49:15.234Z,101995.41
2024-01-24T10:51:45.152Z,101995.09
2024-01-24T10:54:17.096Z,102016.94
2024-01-24T10:56:48.312Z,102002.81
2024-01-24T10:59:17.062Z,102015.53
2024-01-24T11:01:46.050Z,102002.81
2024-01-24T11:04:23.089Z,102024.13
2024-01-24T11:07:03.099Z,102028.00
2024-01-24T11:10:10.387Z,102028.00
2024-01-24T11:12:38.338Z,102027.47
2024-01-24T11:15:07.251Z,102041.28
2024-01-24T11:17:34.889Z,102032.72
2024-01-24T11:20:11.115Z,102040.41
2024-01-24T11:22:38.930Z,102059.25
2024-01-24T11:25:11.903Z,102052.91
2024-01-24T11:27:42.272Z,102048.47
2024-01-24T11:30:12.809Z,102065.03
2024-01-24T11:32:47.044Z,102054.84
2024-01-24T11:35:34.853Z,102058.69
2024-01-24T11:38:29.856Z,102083.88
2024-01-24T11:41:24.502Z,102072.00
2024-01-24T11:43:52.040Z,102066.78
2024-01-24T11:46:23.839Z,102064.00
2024-01-24T11:48:51.861Z,102083.94
2024-01-24T11:51:19.463Z,102083.69
2024-01-24T11:53:47.133Z,102093.38
2024-01-24T11:56:15.955Z,102101.09
2024-01-24T11:58:43.769Z,102107.94
2024-01-24T12:01:12.790Z,102109.88
2024-01-24T12:03:51.239Z,102109.28
2024-01-24T12:06:20.265Z,102117.31
2024-01-24T12:08:50.358Z,102126.94
2024-01-24T12:11:19.550Z,102138.25
2024-01-24T12:13:48.012Z,102115.50
2024-01-24T12:16:15.764Z,102123.22
2024-01-24T12:18:43.684Z,102140.34
2024-01-24T12:21:12.523Z,102136.41
2024-01-24T12:23:41.213Z,102143.63
2024-01-24T12:26:09.007Z,102148.84
2024-01-24T12:28:36.889Z,102151.31
2024-01-24T12:31:06.282Z,102159.31
2024-01-24T12:33:36.560Z,102171.22
2024-01-24T12:36:06.520Z,102156.25
2024-01-24T12:38:37.687Z,102164.56
2024-01-24T12:41:05.858Z,102140.47
2024-01-24T12:43:33.663Z,102157.66
2024-01-24T12:46:08.921Z,102149.09
2024-01-24T12:48:38.307Z,102173.44
2024-01-24T12:51:07.658Z,102192.28
2024-01-24T12:53:36.092Z,102194.22
2024-01-24T12:56:04.196Z,102177.63
2024-01-24T12:58:31.906Z,102180.41
2024-01-24T13:00:59.800Z,102187.31
2024-01-24T13:03:29.662Z,102180.16
2024-01-24T13:05:58.566Z,102192.59
2024-01-24T13:08:26.430Z,102197.31
2024-01-24T13:10:56.019Z,102201.19
2024-01-24T13:13:23.642Z,102213.97
2024-01-24T13:15:54.468Z,102213.41
2024-01-24T13:18:22.646Z,102217.88
2024-01-24T13:20:50.385Z,102216.25
2024-01-24T13:23:17.973Z,102213.25
2024-01-24T13:25:45.545Z,102232.59
2024-01-24T13:28:14.544Z,102232.59
2024-01-24T13:30:42.421Z,102245.06
2024-01-24T13:33:11.089Z,102235.69
2024-01-24T13:35:38.984Z,102237.63
2024-01-24T13:38:06.786Z,102246.75
2024-01-24T13:40:34.515Z,102252.84
2024-01-24T13:43:02.515Z,102265.28
2024-01-24T13:45:30.278Z,102254.00
2024-01-24T13:47:57.925Z,102275.00
2024-01-24T13:50:25.866Z,102268.09
2024-01-24T13:52:53.479Z,102279.72
2024-01-24T13:55:21.072Z,102277.22
2024-01-24T13:57:49.448Z,102282.81
2024-01-24T14:00:17.875Z,102284.47
2024-01-24T14:02:46.122Z,102284.19
2024-01-24T14:05:13.881Z,102291.72
2024-01-24T14:07:44.599Z,102278.19
2024-01-24T14:10:13.206Z,102269.09
2024-01-24T14:12:41.544Z,102285.94
2024-01-24T14:15:19.603Z,102289.00
2024-01-24T14:17:56.300Z,102305.06
2024-01-24T14:20:23.981Z,102319.13
2024-01-24T14:22:52.499Z,102326.59
2024-01-24T14:25:20.906Z,102326.59
2024-01-24T14:27:48.513Z,102315.31
2024-01-24T14:30:16.171Z,102333.28
2024-01-24T14:32:43.816Z,102332.75
2024-01-24T14:35:17.746Z,102343.25
2024-01-24T14:37:45.962Z,102339.69
2024-01-24T14:40:16.298Z,102335.84
2024-01-24T14:42:44.100Z,102348.28
2024-01-24T14:45:11.886Z,102345.28
2024-01-24T14:47:39.606Z,102342.25
2024-01-24T14:50:11.299Z,102358.28
2024-01-24T14:52:39.592Z,102360.50
2024-01-24T14:55:08.978Z,102375.16
2024-01-24T14:57:36.647Z,102377.41
2024-01-24T15:00:11.720Z,102381.00
2024-01-24T15:02:39.749Z,102384.31
2024-01-24T15:05:09.540Z,102384.88
2024-01-24T15:07:38.089Z,102376.34
2024-01-24T15:10:08.280Z,102374.97
2024-01-24T15:12:37.417Z,102403.72
2024-01-24T15:15:06.779Z,102392.94
2024-01-24T15:17:35.162Z,102400.16
2024-01-24T15:20:04.526Z,102381.06
2024-01-24T15:22:34.018Z,102375.31
2024-01-24T15:25:04.625Z,102389.94
2024-01-24T15:27:33.218Z,102409.28
2024-01-24T15:30:00.981Z,102398.50
2024-01-24T15:32:29.914Z,102402.38
2024-01-24T15:34:57.744Z,102409.31
2024-01-24T15:37:25.476Z,102415.38
2024-01-24T15:39:53.020Z,102428.63
2024-01-24T15:42:22.746Z,102425.31
2024-01-24T15:44:50.308Z,102431.41
2024-01-24T15:47:19.578Z,102420.91
2024-01-24T15:49:47.252Z,102431.44
2024-01-24T15:52:17.713Z,102444.41
2024-01-24T15:54:46.866Z,102439.72
2024-01-24T15:57:14.512Z,102454.91
2024-01-24T15:59:42.128Z,102446.06
2024-01-24T16:02:09.764Z,102451.88
2024-01-24T16:04:38.358Z,102449.41
2024-01-24T16:07:06.489Z,102450.22
2024-01-24T16:09:34.259Z,102439.72
2024-01-24T16:12:02.265Z,102443.59
2024-01-24T16:14:30.314Z,102441.38
2024-01-24T16:16:58.354Z,102456.00
2024-01-24T16:19:26.168Z,102461.81
2024-01-24T16:21:54.416Z,102472.00
2024-01-24T16:24:22.312Z,102457.41
2024-01-24T16:26:49.994Z,102464.56
2024-01-24T16:29:18.641Z,102468.44
2024-01-24T16:31:46.905Z,102479.47
2024-01-24T16:34:14.638Z,102477.81
2024-01-24T16:36:42.315Z,102473.94
2024-01-24T16:39:10.809Z,102481.13
2024-01-24T16:41:38.445Z,102472.31
2024-01-24T16:44:05.955Z,102472.59
2024-01-24T16:46:33.454Z,102482.78
2024-01-24T16:49:00.993Z,102484.72
2024-01-24T16:51:28.500Z,102499.06
2024-01-24T16:53:56.119Z,102502.94
2024-01-24T16:56:24.999Z,102509.81
2024-01-24T16:58:52.560Z,102503.47
2024-01-24T17:01:20.184Z,102496.31
2024-01-24T17:03:50.316Z,102502.66
2024-01-24T17:06:18.494Z,102493.28
2024-01-24T17:08:45.979Z,102488.25
2024-01-24T17:11:15.109Z,102492.69
2024-01-24T17:13:42.586Z,102489.38
2024-01-24T17:16:10.117Z,102504.28
2024-01-24T17:18:39.250Z,102504.84
2024-01-24T17:21:07.707Z,102518.06
2024-01-24T17:23:35.399Z,102518.06
2024-01-24T17:26:03.065Z,102528.84
2024-01-24T17:28:30.590Z,102524.41
2024-01-24T17:30:58.257Z,102527.97
2024-01-24T17:33:26.369Z,102532.66
2024-01-24T17:35:54.062Z,102524.69
2024-01-24T17:38:21.696Z,102540.41
2024-01-24T17:40:49.450Z,102533.78
2024-01-24T17:43:17.838Z,102552.25
2024-01-24T17:45:45.452Z,102549.78
2024-01-24T17:48:13.755Z,102555.31
2024-01-24T17:50:41.427Z,102563.28
2024-01-24T17:53:11.510Z,102555.31
2024-01-24T17:55:39.117Z,102560.00
2024-01-24T17:58:06.941Z,102560.25
2024-01-24T18:00:34.645Z,102563.28
2024-01-24T18:03:02.943Z,102564.41
2024-01-24T18:05:30.898Z,102564.69
2024-01-24T18:07:58.570Z,102561.94
2024-01-24T18:10:26.175Z,102568.50
2024-01-24T18:12:57.525Z,102565.75
2024-01-24T18:15:25.564Z,102563.84
2024-01-24T18:17:55.897Z,102559.41
2024-01-24T18:20:23.413Z,102561.34
2024-01-24T18:22:50.947Z,102558.88
2024-01-24T18:25:18.454Z,102560.25
2024-01-24T18:27:45.888Z,102553.88
2024-01-24T18:30:16.962Z,102550.31
2024-01-24T18:32:46.176Z,102557.22
2024-01-24T18:35:14.042Z,102545.59
2024-01-24T18:37:42.168Z,102541.19
2024-01-24T18:40:12.049Z,102549.47
2024-01-24T18:42:42.673Z,102553.34
2024-01-24T18:45:14.124Z,102550.84
2024-01-24T18:47:41.885Z,102534.84
2024-01-24T18:50:09.958Z,102539.53
2024-01-24T18:52:37.600Z,102539.00
2024-01-24T18:55:06.351Z,102543.09
2024-01-24T18:57:34.030Z,102535.13
2024-01-24T19:00:01.747Z,102529.06
2024-01-24T19:02:29.511Z,102534.81
2024-01-24T19:04:58.829Z,102542.25
2024-01-24T19:07:26.631Z,102538.94
2024-01-24T19:09:54.452Z,102540.06
2024-01-24T19:12:22.032Z,102531.22
2024-01-24T19:14:49.741Z,102532.59
2024-01-24T19:17:17.453Z,102535.88
2024-01-24T19:19:45.289Z,102545.53
2024-01-24T19:22:13.698Z,102543.88
2024-01-24T19:24:41.267Z,102560.41
2024-01-24T19:27:08.897Z,102555.16
2024-01-24T19:29:37.272Z,102559.53
2024-01-24T19:32:05.392Z,102564.75
2024-01-24T19:34:33.816Z,102574.38
2024-01-24T19:37:01.312Z,102588.69
2024-01-24T19:39:28.883Z,102580.97
2024-01-24T19:41:56.711Z,102588.38
2024-01-24T19:44:24.768Z,102580.09
2024-01-24T19:46:55.808Z,102578.69
2024-01-24T19:49:23.404Z,102581.41
2024-01-24T19:51:53.221Z,102580.28
2024-01-24T19:54:21.514Z,102577.25
2024-01-24T19:56:49.035Z,102588.22
2024-01-24T19:59:17.420Z,102582.72
2024-01-24T20:01:44.954Z,102580.47
2024-01-24T20:04:12.563Z,102585.44
2024-01-24T20:06:40.183Z,102586.50
2024-01-24T20:09:08.274Z,102589.75
2024-01-24T20:11:35.755Z,102583.97
2024-01-24T20:14:03.797Z,102588.34
2024-01-24T20:16:31.391Z,102583.13
2024-01-24T20:18:58.974Z,102594.13
2024-01-24T20:21:26.567Z,102599.03
2024-01-24T20:23:54.105Z,102603.44
2024-01-24T20:26:23.393Z,102595.47
2024-01-24T20:28:50.891Z,102590.50
2024-01-24T20:31:18.832Z,102597.06
2024-01-24T20:33:46.420Z,102595.41
2024-01-24T20:36:14.160Z,102611.94
2024-01-24T20:38:41.998Z,102619.34
2024-01-24T20:41:11.136Z,102613.31
2024-01-24T20:43:40.206Z,102604.22
2024-01-24T20:46:10.055Z,102605.06
2024-01-24T20:48:37.986Z,102602.53
2024-01-24T20:51:05.803Z,102600.88
2024-01-24T20:53:33.637Z,102609.41
2024-01-24T20:56:01.114Z,102615.41
2024-01-24T20:58:28.692Z,102611.03
2024-01-24T21:00:56.504Z,102617.06
2024-01-24T21:03:24.317Z,102611.78
2024-01-24T21:05:53.001Z,102604.09
2024-01-24T21:08:21.337Z,102615.31
2024-01-24T21:10:55.368Z,102618.34
2024-01-24T21:13:29.442Z,102604.88
2024-01-24T21:15:57.246Z,102604.03
2024-01-24T21:18:27.320Z,102614.78
2024-01-24T21:20:55.194Z,102607.63
2024-01-24T21:23:22.804Z,102612.56
2024-01-24T21:25:50.405Z,102610.06
2024-01-24T21:28:17.911Z,102614.13
2024-01-24T21:30:45.577Z,102616.28
2024-01-24T21:33:13.262Z,102613.81
2024-01-24T21:35:41.889Z,102611.38
2024-01-24T21:38:10.581Z,102617.22
2024-01-24T21:40:38.115Z,102619.13
2024-01-24T21:43:05.610Z,102610.88
2024-01-24T21:45:33.123Z,102601.56
2024-01-24T21:48:00.891Z,102608.72
2024-01-24T21:50:29.114Z,102611.47
2024-01-24T21:52:56.742Z,102603.22
2024-01-24T21:55:24.204Z,102603.78
2024-01-24T21:57:53.439Z,102605.44
2024-01-24T22:00:21.077Z,102607.34
2024-01-24T22:02:48.945Z,102606.25
2024-01-24T22:05:18.999Z,102610.41
2024-01-24T22:07:51.126Z,102608.50
2024-01-24T22:10:19.099Z,102616.78
2024-01-24T22:12:48.358Z,102617.63
2024-01-24T22:15:16.006Z,102608.25
2024-01-24T22:17:43.750Z,102604.41
2024-01-24T22:20:11.813Z,102612.44
2024-01-24T22:22:39.430Z,102610.25
2024-01-24T22:25:08.926Z,102612.72
2024-01-24T22:27:36.588Z,102625.38
2024-01-24T22:30:05.958Z,102624.03
2024-01-24T22:32:34.501Z,102631.19
2024-01-24T22:35:02.780Z,102627.94
2024-01-24T22:37:30.615Z,102630.69
2024-01-24T22:39:58.282Z,102634.81
2024-01-24T22:42:25.992Z,102630.13
2024-01-24T22:44:53.667Z,102629.31
2024-01-24T22:47:21.417Z,102628.50
2024-01-24T22:49:49.251Z,102638.66
2024-01-24T22:52:17.472Z,102632.06
2024-01-24T22:54:45.385Z,102654.09
2024-01-24T22:57:13.149Z,102645.00
2024-01-24T22:59:40.666Z,102653.00
2024-01-24T23:02:08.250Z,102647.47
2024-01-24T23:04:35.907Z,102646.66
2024-01-24T23:07:03.568Z,102644.72
2024-01-24T23:09:31.179Z,102655.75
2024-01-24T23:11:58.688Z,102654.34
2024-01-24T23:14:26.304Z,102659.03
2024-01-24T23:16:53.808Z,102667.03
2024-01-24T23:19:21.395Z,102660.13
2024-01-24T23:21:49.101Z,102673.88
2024-01-24T23:24:17.400Z,102671.69
2024-01-24T23:26:45.156Z,102685.72
2024-01-24T23:29:15.169Z,102681.56
2024-01-24T23:31:42.678Z,102682.66
2024-01-24T23:34:11.698Z,102688.16
2024-01-24T23:36:39.813Z,102682.09
2024-01-24T23:39:08.056Z,102680.69
2024-01-24T23:41:40.105Z,102673.00
2024-01-24T23:44:07.940Z,102679.03
2024-01-24T23:46:35.536Z,102677.38
2024-01-24T23:49:04.385Z,102682.28
2024-01-24T23:51:35.928Z,102688.06
2024-01-24T23:54:04.418Z,102690.81
2024-01-24T23:56:32.100Z,102683.66
2024-01-24T23:58:59.604Z,102686.69
